Albany, Oregon
Current Conditions -  °F | °C
As of 11:35 PM on Tuesday 25 Nov 2014 (Local Time) from KCVO Reporting Station
Broken Clouds Broken Clouds  
Wind Chill: 55°   Ceiling: 5000
Heat Index: 55°   Visibility: 10mi
Dew Point: 52°   Wind: 7mph
Humidity: 88%   Direction: 170°S
Pressure: 30.31"   Gusts: NA
Location:  44.64°N, 123.1°W
Report Text: KCVO 260735Z AUTO 17006KT 10SM BKN050 13/11 A3031 RMK AO1
Loading
Personal Weather Stations






























Interactive Weather Map New forecast layout! Learn more

10-Day Weather Forecast

Advertisements
Track Severe Weather on mobile